Time;durP1;ratioP1;P1;durP2;ratioP2;P2;SDS_P1;SDS_P2;PMS_P1;PMS_P2;Temp;Humidity;BMP_temperature;BMP_pressure;BME280_temperature;BME280_humidity;BME280_pressure;Samples;Min_cycle;Max_cycle;Signal;HPM_P1;HPM_P2
2021/05/31 00:00:27;;;;;;;6.47;2.03;;;8.50;99.90;;;;;;4972209;28;20248;-69
2021/05/31 00:02:55;;;;;;;2.80;2.40;;;8.40;99.90;;;;;;4972148;28;20699;-67
2021/05/31 00:05:25;;;;;;;3.65;3.17;;;8.40;99.90;;;;;;4972358;28;20198;-68
2021/05/31 00:07:53;;;;;;;2.45;1.85;;;8.30;99.90;;;;;;4970882;28;20191;-66
2021/05/31 00:10:21;;;;;;;3.80;3.05;;;8.30;99.90;;;;;;4972384;28;20663;-67
2021/05/31 00:12:50;;;;;;;2.47;1.75;;;8.20;99.90;;;;;;4971620;28;20222;-68
2021/05/31 00:15:19;;;;;;;5.15;2.83;;;8.20;99.90;;;;;;4972440;28;20682;-67
2021/05/31 00:17:48;;;;;;;3.33;2.20;;;8.10;99.90;;;;;;4972342;28;20195;-68
2021/05/31 00:20:17;;;;;;;2.60;2.22;;;8.10;99.90;;;;;;4972205;28;20175;-68
2021/05/31 00:22:45;;;;;;;2.58;2.25;;;8.10;99.90;;;;;;4971894;28;20270;-67
2021/05/31 00:25:14;;;;;;;11.45;3.28;;;8.10;99.90;;;;;;4972233;28;20198;-67
2021/05/31 00:27:42;;;;;;;3.53;2.13;;;8.00;99.90;;;;;;4971991;28;20195;-68
2021/05/31 00:30:12;;;;;;;4.78;2.28;;;8.00;99.90;;;;;;4970881;28;20196;-68
2021/05/31 00:32:41;;;;;;;2.90;2.45;;;7.90;99.90;;;;;;4971944;28;20562;-67
2021/05/31 00:35:11;;;;;;;2.35;2.15;;;7.90;99.90;;;;;;4972240;28;20672;-66
2021/05/31 00:37:38;;;;;;;3.05;2.22;;;7.80;99.90;;;;;;4972072;28;20192;-69
2021/05/31 00:40:08;;;;;;;3.70;2.38;;;7.80;99.90;;;;;;4972355;28;20250;-69
2021/05/31 00:42:35;;;;;;;3.75;3.00;;;7.70;99.90;;;;;;4972245;28;20195;-68
2021/05/31 00:45:05;;;;;;;3.15;2.40;;;7.60;99.90;;;;;;4970912;28;20210;-68
2021/05/31 00:47:33;;;;;;;3.35;2.80;;;7.60;99.90;;;;;;4972245;28;20192;-67
2021/05/31 00:50:02;;;;;;;2.30;2.05;;;7.60;99.90;;;;;;4972820;28;20176;-68
2021/05/31 00:52:30;;;;;;;3.15;2.38;;;7.60;99.90;;;;;;4972543;28;20552;-68
2021/05/31 00:54:58;;;;;;;3.17;2.45;;;7.60;99.90;;;;;;4972540;28;20180;-67
2021/05/31 00:57:26;;;;;;;6.35;2.60;;;7.50;99.90;;;;;;4972236;28;20571;-68
2021/05/31 00:59:54;;;;;;;4.10;2.45;;;7.50;99.90;;;;;;4971887;28;20191;-67
2021/05/31 01:02:22;;;;;;;2.45;2.20;;;7.50;99.90;;;;;;4972041;28;20191;-67
2021/05/31 01:04:49;;;;;;;2.35;2.05;;;7.40;99.90;;;;;;4971533;28;20222;-68
2021/05/31 01:07:26;;;;;;;2.40;2.17;;;7.40;99.90;;;;;;4971359;28;20183;-68
2021/05/31 01:10:03;;;;;;;2.33;1.50;;;7.30;99.90;;;;;;4971659;28;20198;-67
2021/05/31 01:12:34;;;;;;;4.85;2.95;;;7.30;99.90;;;;;;4972693;28;20199;-68
2021/05/31 01:15:08;;;;;;;3.13;2.30;;;7.20;99.90;;;;;;4975141;28;20254;-68
2021/05/31 01:17:47;;;;;;;2.35;1.98;;;7.20;99.90;;;;;;4975350;28;20191;-68
2021/05/31 01:20:29;;;;;;;2.00;1.73;;;7.20;99.90;;;;;;4975350;28;20350;-68
2021/05/31 01:23:00;;;;;;;2.22;1.92;;;7.20;99.90;;;;;;4974536;28;20215;-67
2021/05/31 01:25:36;;;;;;;3.70;2.20;;;7.10;99.90;;;;;;4975024;28;20633;-67
2021/05/31 01:28:46;;;;;;;2.40;1.85;;;7.10;99.90;;;;;;4975560;28;20622;-67
2021/05/31 01:31:19;;;;;;;2.90;2.05;;;7.10;99.90;;;;;;4975073;28;20282;-67
2021/05/31 01:33:49;;;;;;;2.38;2.17;;;7.10;99.90;;;;;;4975025;28;20262;-67
2021/05/31 01:36:18;;;;;;;5.18;1.95;;;7.10;99.90;;;;;;4975390;28;20609;-69
2021/05/31 01:38:48;;;;;;;5.28;3.28;;;7.10;99.90;;;;;;4973705;28;20383;-68
2021/05/31 01:41:17;;;;;;;3.50;2.50;;;7.10;99.90;;;;;;4974873;28;20270;-68
2021/05/31 01:43:46;;;;;;;4.00;3.08;;;7.00;99.90;;;;;;4974635;28;20211;-68
2021/05/31 01:46:15;;;;;;;3.33;2.45;;;7.00;99.90;;;;;;4974728;28;20750;-67
2021/05/31 01:48:44;;;;;;;2.15;1.40;;;7.00;99.90;;;;;;4974892;28;20586;-66
2021/05/31 01:51:13;;;;;;;5.20;2.60;;;7.00;99.90;;;;;;4974719;28;20180;-68
2021/05/31 01:53:42;;;;;;;3.53;2.90;;;6.90;99.90;;;;;;4974544;28;20204;-68
2021/05/31 01:56:10;;;;;;;2.80;2.10;;;6.80;99.90;;;;;;4975021;28;20179;-67
2021/05/31 01:58:39;;;;;;;3.55;2.47;;;6.80;99.90;;;;;;4974770;28;20183;-68
2021/05/31 02:01:08;;;;;;;3.80;2.88;;;6.80;99.90;;;;;;4974784;28;20195;-68
2021/05/31 02:03:38;;;;;;;2.38;1.88;;;6.70;99.90;;;;;;4975328;28;20306;-68
2021/05/31 02:06:06;;;;;;;3.60;2.95;;;6.70;99.90;;;;;;4974944;28;20611;-68
2021/05/31 02:08:34;;;;;;;3.92;2.78;;;6.70;99.90;;;;;;4974884;28;20192;-67
2021/05/31 02:11:10;;;;;;;5.43;3.08;;;6.70;99.90;;;;;;4974734;28;20644;-68
2021/05/31 02:13:41;;;;;;;4.47;3.08;;;6.70;99.90;;;;;;4974646;28;20286;-68
2021/05/31 02:16:16;;;;;;;4.85;2.67;;;6.70;99.90;;;;;;4974336;28;20936;-68
2021/05/31 02:18:50;;;;;;;3.78;2.53;;;6.60;99.90;;;;;;4974298;28;20211;-66
2021/05/31 02:21:18;;;;;;;3.55;2.75;;;6.50;99.90;;;;;;4973895;28;20323;-68
2021/05/31 02:23:47;;;;;;;5.88;3.00;;;6.50;99.90;;;;;;4973631;28;20226;-69
2021/05/31 02:26:16;;;;;;;3.33;2.22;;;6.50;99.90;;;;;;4974208;28;20195;-66
2021/05/31 02:28:46;;;;;;;2.80;2.60;;;6.50;99.90;;;;;;4974371;28;20576;-68
2021/05/31 02:31:15;;;;;;;3.13;2.42;;;6.40;99.90;;;;;;4973870;28;20187;-68
2021/05/31 02:33:47;;;;;;;3.05;2.15;;;6.40;99.90;;;;;;4973877;28;20203;-66
2021/05/31 02:36:16;;;;;;;5.32;3.58;;;6.30;99.90;;;;;;4973917;28;20377;-69
2021/05/31 02:38:44;;;;;;;4.18;2.67;;;6.30;99.90;;;;;;4973820;28;20199;-66
2021/05/31 02:41:12;;;;;;;3.22;2.50;;;6.30;99.90;;;;;;4973708;28;20187;-66
2021/05/31 02:43:40;;;;;;;2.95;2.53;;;6.30;99.90;;;;;;4973307;28;20215;-66
2021/05/31 02:46:07;;;;;;;3.78;2.60;;;6.30;99.90;;;;;;4973845;28;20195;-67
2021/05/31 02:48:35;;;;;;;4.40;2.30;;;6.30;99.90;;;;;;4973993;28;20192;-66
2021/05/31 02:51:05;;;;;;;5.25;2.30;;;6.30;99.90;;;;;;4973675;28;20262;-68
2021/05/31 02:53:33;;;;;;;4.60;2.67;;;6.30;99.90;;;;;;4973916;28;20261;-67
2021/05/31 02:56:01;;;;;;;4.75;3.28;;;6.30;99.90;;;;;;4973684;28;20188;-67
2021/05/31 02:58:29;;;;;;;2.65;2.45;;;6.30;99.90;;;;;;4973782;28;20199;-68
2021/05/31 03:00:57;;;;;;;3.33;2.10;;;6.30;99.90;;;;;;4973480;28;20183;-67
2021/05/31 03:03:25;;;;;;;3.72;3.42;;;6.30;99.90;;;;;;4973860;28;20589;-68
2021/05/31 03:05:52;;;;;;;4.10;2.70;;;6.30;99.90;;;;;;4973716;28;20266;-66
2021/05/31 03:08:22;;;;;;;4.72;2.60;;;6.30;99.90;;;;;;4973657;28;20199;-67
2021/05/31 03:13:45;;;;;;;6.80;2.30;;;6.20;99.90;;;;;;4976146;28;20211;-83
2021/05/31 03:16:13;;;;;;;3.67;2.30;;;6.20;99.90;;;;;;4978541;28;20554;-84
2021/05/31 03:18:40;;;;;;;4.45;2.42;;;6.20;99.90;;;;;;4981066;28;20650;-84
2021/05/31 03:21:08;;;;;;;3.08;2.78;;;6.20;99.90;;;;;;4979723;28;20310;-83
2021/05/31 03:23:38;;;;;;;3.65;2.20;;;6.20;99.90;;;;;;4963753;28;20187;-85
2021/05/31 03:26:05;;;;;;;4.18;3.05;;;6.30;99.90;;;;;;4966260;28;20215;-83
2021/05/31 03:28:33;;;;;;;3.67;2.83;;;6.30;99.90;;;;;;4985947;28;20222;-83
2021/05/31 03:31:01;;;;;;;4.35;3.35;;;6.30;99.90;;;;;;4966713;28;20262;-83
2021/05/31 03:33:28;;;;;;;4.97;3.13;;;6.40;99.90;;;;;;4966096;28;20201;-84
2021/05/31 03:35:56;;;;;;;2.70;2.45;;;6.70;99.90;;;;;;4980560;28;20176;-83
2021/05/31 03:38:24;;;;;;;5.70;3.92;;;7.40;99.90;;;;;;4965845;28;20210;-82
2021/05/31 03:40:53;;;;;;;3.53;2.70;;;8.80;99.90;;;;;;4968848;28;20674;-83
2021/05/31 03:43:21;;;;;;;5.30;2.90;;;10.30;99.90;;;;;;4969067;28;20658;-84
2021/05/31 03:45:49;;;;;;;3.72;2.67;;;11.40;99.90;;;;;;4966460;28;20314;-83
2021/05/31 03:48:17;;;;;;;5.22;3.17;;;11.90;99.90;;;;;;4978293;28;20186;-82
2021/05/31 03:50:48;;;;;;;5.63;2.72;;;12.10;99.90;;;;;;4977634;28;20199;-81
2021/05/31 03:53:16;;;;;;;12.90;2.53;;;13.10;99.90;;;;;;4965255;28;20366;-83
2021/05/31 03:55:44;;;;;;;4.03;2.13;;;13.80;99.90;;;;;;4979750;28;20502;-82
2021/05/31 03:58:13;;;;;;;3.23;2.70;;;14.00;99.90;;;;;;4962716;28;20436;-84
2021/05/31 04:00:40;;;;;;;3.07;2.13;;;14.20;99.90;;;;;;4962830;28;20441;-84
2021/05/31 04:03:10;;;;;;;3.83;2.17;;;14.10;99.90;;;;;;4982262;28;20464;-84
2021/05/31 04:05:51;;;;;;;4.03;2.37;;;15.00;99.90;;;;;;4980325;28;20445;-84
2021/05/31 04:13:59;;;;;;;7.93;3.67;;;15.10;99.90;;;;;;4963519;28;20449;-83
2021/05/31 04:16:27;;;;;;;4.97;2.40;;;15.80;99.90;;;;;;4965400;28;20466;-83
2021/05/31 04:18:55;;;;;;;3.50;2.97;;;16.50;99.90;;;;;;4965260;28;20412;-83
2021/05/31 04:21:23;;;;;;;4.10;2.37;;;17.40;99.90;;;;;;4981822;28;20418;-84
2021/05/31 04:23:51;;;;;;;3.10;2.73;;;18.20;99.90;;;;;;4963486;28;20484;-84
2021/05/31 04:26:19;;;;;;;2.30;1.90;;;18.90;99.90;;;;;;4964803;28;20479;-83
2021/05/31 04:28:47;;;;;;;2.13;1.73;;;19.30;99.90;;;;;;4963552;28;20402;-84
2021/05/31 04:31:17;;;;;;;3.07;2.50;;;20.10;99.90;;;;;;4962630;28;20451;-84
2021/05/31 04:33:45;;;;;;;3.43;2.40;;;19.80;99.90;;;;;;4980082;28;20393;-84
2021/05/31 04:36:13;;;;;;;3.80;2.40;;;19.20;99.90;;;;;;4962553;28;20442;-84
2021/05/31 04:38:40;;;;;;;8.30;2.93;;;19.10;99.90;;;;;;4971423;28;20453;-82
2021/05/31 04:41:08;;;;;;;3.67;2.77;;;19.80;99.90;;;;;;4981687;28;20763;-80
2021/05/31 04:43:36;;;;;;;4.27;3.10;;;20.40;99.90;;;;;;4981744;28;20446;-80
2021/05/31 04:46:05;;;;;;;5.57;2.60;;;20.80;99.90;;;;;;4981346;28;20526;-80
2021/05/31 04:48:34;;;;;;;3.07;2.77;;;20.40;99.90;;;;;;4992017;28;20415;-83
2021/05/31 04:51:02;;;;;;;2.60;2.40;;;20.20;99.90;;;;;;4965733;28;20563;-85
2021/05/31 04:53:31;;;;;;;4.53;2.57;;;19.90;99.90;;;;;;4967656;28;20431;-84
2021/05/31 04:56:01;;;;;;;3.13;2.53;;;20.40;99.90;;;;;;4986042;28;20390;-84
2021/05/31 04:58:29;;;;;;;3.73;2.90;;;20.80;99.90;;;;;;4965594;28;20482;-82
2021/05/31 05:00:57;;;;;;;4.60;3.20;;;21.30;99.90;;;;;;4972143;28;20468;-80
2021/05/31 05:03:24;;;;;;;3.30;2.60;;;20.40;99.90;;;;;;4972067;28;20930;-84
2021/05/31 05:05:54;;;;;;;3.43;2.70;;;20.40;99.90;;;;;;4987539;28;20481;-82
2021/05/31 05:08:22;;;;;;;4.47;3.07;;;21.20;99.90;;;;;;4980113;28;20658;-84
2021/05/31 05:10:50;;;;;;;4.10;3.17;;;20.80;99.90;;;;;;4978843;28;20514;-80
2021/05/31 05:13:17;;;;;;;6.80;2.90;;;21.00;99.90;;;;;;4979344;28;20473;-82
2021/05/31 05:15:49;;;;;;;3.40;3.10;;;21.50;99.90;;;;;;4997040;28;20405;-81
2021/05/31 05:18:17;;;;;;;2.87;2.57;;;21.90;99.90;;;;;;4997009;28;20478;-84
2021/05/31 05:20:45;;;;;;;4.80;2.57;;;21.60;99.90;;;;;;4992447;28;20474;-83
2021/05/31 05:23:14;;;;;;;4.10;3.37;;;21.80;99.90;;;;;;4976209;28;20466;-84
2021/05/31 05:25:52;;;;;;;5.03;3.50;;;22.20;99.90;;;;;;4974460;28;20513;-83
2021/05/31 05:28:20;;;;;;;5.03;2.60;;;22.80;99.90;;;;;;4993138;28;20427;-82
2021/05/31 05:30:50;;;;;;;2.33;2.13;;;23.40;99.90;;;;;;4975428;28;20423;-82
2021/05/31 05:33:18;;;;;;;5.90;3.00;;;21.30;99.90;;;;;;4991397;28;20621;-82
2021/05/31 05:35:51;;;;;;;4.63;2.57;;;19.10;99.90;;;;;;4973617;28;20422;-84
2021/05/31 05:38:37;;;;;;;5.57;3.30;;;16.90;99.90;;;;;;4972940;29;20440;-82
2021/05/31 05:41:27;;;;;;;5.77;3.20;;;15.00;99.90;;;;;;4972644;29;20406;-83
2021/05/31 05:44:21;;;;;;;3.20;2.83;;;13.80;99.90;;;;;;4974329;29;20397;-83
2021/05/31 05:46:51;;;;;;;7.80;3.50;;;13.10;99.90;;;;;;4956363;29;20445;-82
2021/05/31 05:49:19;;;;;;;8.73;2.97;;;12.50;99.90;;;;;;4952179;29;20422;-81
2021/05/31 05:51:47;;;;;;;3.93;3.03;;;12.20;99.90;;;;;;4964118;29;20457;-82
2021/05/31 05:54:16;;;;;;;3.90;2.83;;;11.80;99.90;;;;;;4950774;29;20388;-82
2021/05/31 05:56:44;;;;;;;4.50;3.03;;;11.70;99.90;;;;;;4930878;29;20452;-83
2021/05/31 05:59:12;;;;;;;5.73;3.17;;;11.80;99.90;;;;;;4951095;29;20446;-82
2021/05/31 06:01:40;;;;;;;4.03;3.20;;;11.70;99.90;;;;;;4956394;29;20784;-83
2021/05/31 06:04:09;;;;;;;4.03;3.23;;;11.70;99.90;;;;;;4956440;29;20421;-84
2021/05/31 06:06:37;;;;;;;3.40;3.10;;;11.90;99.90;;;;;;4957874;29;20498;-85
2021/05/31 06:09:06;;;;;;;6.10;4.10;;;11.90;99.90;;;;;;4956451;29;20409;-84
2021/05/31 06:11:36;;;;;;;4.13;3.50;;;12.00;99.90;;;;;;4957913;29;20520;-85
2021/05/31 06:14:04;;;;;;;2.80;2.47;;;12.30;99.90;;;;;;4940806;29;20436;-83
2021/05/31 06:16:32;;;;;;;3.43;3.10;;;12.40;99.90;;;;;;4958911;29;20409;-84
2021/05/31 06:19:00;;;;;;;5.67;3.20;;;12.20;99.90;;;;;;4971996;28;20442;-82
2021/05/31 06:21:28;;;;;;;6.67;4.07;;;12.30;99.90;;;;;;4977221;28;20440;-81
2021/05/31 06:23:55;;;;;;;3.60;2.80;;;12.50;99.90;;;;;;4994402;28;20450;-83
2021/05/31 06:26:23;;;;;;;7.17;3.83;;;12.40;99.90;;;;;;4978242;28;20534;-84
2021/05/31 06:28:52;;;;;;;4.83;3.40;;;12.50;99.90;;;;;;4996606;28;20398;-84
2021/05/31 06:31:20;;;;;;;5.73;4.40;;;12.60;99.90;;;;;;4994633;28;20517;-83
2021/05/31 06:33:48;;;;;;;5.27;4.77;;;12.70;99.90;;;;;;4978059;28;20416;-84
2021/05/31 06:36:16;;;;;;;5.27;3.37;;;13.00;99.90;;;;;;4964527;29;20976;-84
2021/05/31 06:38:44;;;;;;;5.20;3.73;;;13.30;99.90;;;;;;4953432;29;20479;-83
2021/05/31 06:41:12;;;;;;;5.20;3.43;;;13.50;99.90;;;;;;4952980;29;20565;-83
2021/05/31 06:43:39;;;;;;;3.87;3.10;;;13.70;99.90;;;;;;4950415;29;20516;-84
2021/05/31 06:46:10;;;;;;;3.97;3.57;;;13.70;99.90;;;;;;4936033;29;20962;-83
2021/05/31 06:48:38;;;;;;;5.03;4.17;;;13.70;99.90;;;;;;4934221;29;20415;-84
2021/05/31 06:51:06;;;;;;;4.83;3.87;;;13.80;99.90;;;;;;4950258;29;20419;-84
2021/05/31 06:53:35;;;;;;;6.43;3.23;;;13.70;99.90;;;;;;4934245;29;20444;-84
2021/05/31 06:56:03;;;;;;;4.00;3.70;;;13.60;99.90;;;;;;4952595;29;20409;-82
2021/05/31 06:58:31;;;;;;;4.60;4.03;;;13.70;99.90;;;;;;4951768;29;20391;-83
2021/05/31 07:00:59;;;;;;;5.60;3.20;;;13.80;99.90;;;;;;4931726;29;20475;-83
2021/05/31 07:03:29;;;;;;;4.70;2.97;;;14.10;99.90;;;;;;4932317;29;20440;-82
2021/05/31 07:05:56;;;;;;;4.87;3.70;;;14.20;99.90;;;;;;4948874;29;20439;-84
2021/05/31 07:08:26;;;;;;;4.47;4.07;;;14.40;99.90;;;;;;4932726;29;20423;-83
2021/05/31 07:10:54;;;;;;;6.27;4.97;;;14.30;99.90;;;;;;4932607;29;20423;-83
2021/05/31 07:13:22;;;;;;;5.73;3.80;;;14.20;99.90;;;;;;4948711;29;20422;-84
2021/05/31 07:15:52;;;;;;;6.50;5.90;;;14.30;99.90;;;;;;4931782;29;20438;-83
2021/05/31 07:18:20;;;;;;;6.47;5.83;;;14.30;99.90;;;;;;4932626;29;20430;-83
2021/05/31 07:20:51;;;;;;;5.63;3.90;;;14.50;99.90;;;;;;4949439;29;20475;-82
2021/05/31 07:23:19;;;;;;;5.10;3.77;;;14.60;99.90;;;;;;4933076;29;20412;-83
2021/05/31 07:25:47;;;;;;;4.80;3.27;;;14.80;99.90;;;;;;4931590;29;20950;-83
2021/05/31 07:28:15;;;;;;;5.90;4.10;;;14.80;99.90;;;;;;4933946;29;20448;-83
2021/05/31 07:30:43;;;;;;;5.50;3.30;;;14.80;99.90;;;;;;4949861;29;20504;-83
2021/05/31 07:33:14;;;;;;;7.20;4.53;;;14.80;99.90;;;;;;4950772;29;20516;-83
2021/05/31 07:35:42;;;;;;;4.67;3.10;;;14.80;99.90;;;;;;4939318;29;20441;-82
2021/05/31 07:38:12;;;;;;;6.00;3.07;;;15.00;99.90;;;;;;4959772;29;20383;-83
2021/05/31 07:40:40;;;;;;;5.27;3.23;;;15.00;99.90;;;;;;4943053;29;20395;-82
2021/05/31 07:44:03;;;;;;;5.60;4.30;;;15.00;99.90;;;;;;4955727;29;20447;-82
2021/05/31 07:47:03;;;;;;;5.77;3.03;;;15.40;99.90;;;;;;4971656;29;20487;-82
2021/05/31 07:49:48;;;;;;;6.60;3.10;;;15.60;99.90;;;;;;4973239;29;20450;-82
2021/05/31 08:01:30;;;;;;;10.30;3.00;;;15.70;99.90;;;;;;4973194;29;20474;-83
2021/05/31 08:11:22;;;;;;;6.47;3.13;;;15.90;99.90;;;;;;4967135;29;20475;-83
2021/05/31 08:13:54;;;;;;;8.93;4.47;;;16.00;99.90;;;;;;4959873;29;20427;-84
2021/05/31 08:16:23;;;;;;;5.47;3.67;;;15.90;99.90;;;;;;4962789;28;20442;-83
2021/05/31 08:18:53;;;;;;;8.33;3.47;;;15.90;99.90;;;;;;4978815;28;20415;-82
2021/05/31 08:21:28;;;;;;;6.90;5.47;;;15.90;99.90;;;;;;4978116;28;20475;-83
2021/05/31 08:24:05;;;;;;;4.87;2.43;;;16.00;99.90;;;;;;4965284;28;20442;-83
2021/05/31 08:26:35;;;;;;;3.13;2.70;;;16.20;99.90;;;;;;4958667;29;20437;-83
2021/05/31 08:29:09;;;;;;;3.00;2.60;;;16.30;99.90;;;;;;4977272;29;20437;-83
2021/05/31 08:31:46;;;;;;;3.17;2.63;;;16.40;99.90;;;;;;4976491;28;20739;-81
2021/05/31 08:34:33;;;;;;;11.23;7.40;;;16.40;99.90;;;;;;4956264;29;20442;-83
2021/05/31 08:37:10;;;;;;;3.00;2.37;;;16.50;99.90;;;;;;4951997;29;20555;-82
2021/05/31 08:39:54;;;;;;;2.70;2.40;;;16.70;99.90;;;;;;4946855;29;20457;-81
2021/05/31 08:51:43;;;;;;;4.00;3.27;;;16.70;99.90;;;;;;4905155;23;20447;-71
2021/05/31 08:54:11;;;;;;;2.40;2.20;;;17.00;99.90;;;;;;4991090;28;20425;-71
2021/05/31 08:56:40;;;;;;;2.97;2.50;;;17.20;99.90;;;;;;4991940;28;20765;-71
2021/05/31 08:59:08;;;;;;;3.10;2.67;;;17.50;99.90;;;;;;4991344;28;20392;-71
2021/05/31 09:01:35;;;;;;;3.17;2.50;;;17.30;99.90;;;;;;4990866;28;20425;-70
2021/05/31 09:04:03;;;;;;;2.70;2.50;;;17.30;99.90;;;;;;4991208;28;20424;-70
2021/05/31 09:06:33;;;;;;;6.30;2.40;;;17.40;99.90;;;;;;4991796;28;20801;-72
2021/05/31 09:09:02;;;;;;;3.03;2.40;;;17.40;99.90;;;;;;4992293;28;20397;-70
2021/05/31 09:11:29;;;;;;;2.80;2.30;;;17.30;99.90;;;;;;5003578;23;20421;-82
2021/05/31 09:13:59;;;;;;;6.07;3.50;;;17.50;99.90;;;;;;4981665;28;20403;-84
2021/05/31 09:16:28;;;;;;;2.77;2.47;;;17.60;99.90;;;;;;4997026;28;20936;-83
2021/05/31 09:18:58;;;;;;;3.63;2.03;;;17.50;99.90;;;;;;4999305;28;20611;-82
2021/05/31 09:21:28;;;;;;;2.43;2.23;;;17.50;99.90;;;;;;4994315;28;20451;-83
2021/05/31 09:23:58;;;;;;;2.07;1.87;;;17.60;99.90;;;;;;4978655;28;20421;-82
2021/05/31 09:26:26;;;;;;;2.97;2.10;;;17.50;99.90;;;;;;4982078;28;20459;-81
2021/05/31 09:28:56;;;;;;;2.20;1.90;;;17.50;99.90;;;;;;4981865;28;20498;-82
2021/05/31 09:31:26;;;;;;;4.23;1.90;;;17.70;99.90;;;;;;4985073;28;20433;-82
2021/05/31 09:33:59;;;;;;;3.50;2.67;;;17.80;99.90;;;;;;4973207;28;20439;-83
2021/05/31 09:36:33;;;;;;;2.50;1.80;;;17.80;99.90;;;;;;4966409;28;20855;-81
2021/05/31 09:39:02;;;;;;;3.40;2.00;;;17.90;99.90;;;;;;4964824;28;20411;-81
2021/05/31 09:41:32;;;;;;;2.53;2.27;;;17.80;99.90;;;;;;4964095;28;20456;-82
2021/05/31 09:44:03;;;;;;;3.17;2.17;;;17.80;99.90;;;;;;4966525;28;20438;-81
2021/05/31 09:46:40;;;;;;;3.20;2.73;;;17.80;99.90;;;;;;4971811;29;20471;-81
2021/05/31 09:49:13;;;;;;;2.33;2.13;;;18.10;99.90;;;;;;4976533;29;20423;-81
2021/05/31 09:51:51;;;;;;;3.50;3.00;;;18.40;99.90;;;;;;4977927;28;20430;-82
2021/05/31 09:54:33;;;;;;;2.17;1.67;;;18.50;99.90;;;;;;4978660;29;20403;-81
2021/05/31 09:57:14;;;;;;;2.50;1.83;;;18.10;99.90;;;;;;4978072;28;20915;-83
2021/05/31 09:59:44;;;;;;;1.57;1.40;;;17.80;99.90;;;;;;4964339;28;20407;-83
2021/05/31 10:02:17;;;;;;;1.40;1.20;;;17.90;99.90;;;;;;4964206;28;20443;-83
2021/05/31 10:07:37;;;;;;;1.67;1.53;;;18.20;99.90;;;;;;4966571;28;20469;-83
2021/05/31 10:10:06;;;;;;;2.27;1.70;;;18.20;99.90;;;;;;4969068;28;20382;-83
2021/05/31 10:12:51;;;;;;;4.47;2.40;;;18.30;99.90;;;;;;4966796;28;20467;-83
2021/05/31 10:15:20;;;;;;;2.10;1.83;;;18.40;99.90;;;;;;4966126;28;20406;-83
2021/05/31 10:17:52;;;;;;;1.80;1.50;;;18.30;99.90;;;;;;4963596;28;20411;-81
2021/05/31 10:20:20;;;;;;;5.90;2.07;;;18.40;99.90;;;;;;4964272;28;20394;-84
2021/05/31 10:22:48;;;;;;;2.67;2.10;;;18.40;99.90;;;;;;4964402;28;20451;-84
2021/05/31 10:25:18;;;;;;;2.23;1.80;;;18.20;99.90;;;;;;4965460;28;20440;-81
2021/05/31 10:27:51;;;;;;;3.63;2.57;;;18.30;99.90;;;;;;4965681;28;20607;-83
2021/05/31 10:30:20;;;;;;;4.47;1.83;;;18.60;99.90;;;;;;4962274;28;20458;-83
2021/05/31 10:32:51;;;;;;;1.67;1.50;;;18.60;99.90;;;;;;4959818;28;20475;-85
2021/05/31 10:35:23;;;;;;;2.83;1.27;;;18.60;99.90;;;;;;4940411;29;20442;-82
2021/05/31 10:37:53;;;;;;;2.40;2.20;;;18.80;99.90;;;;;;4948319;29;20425;-82
2021/05/31 10:40:22;;;;;;;3.03;1.87;;;19.00;99.90;;;;;;4955307;29;20436;-81
2021/05/31 10:42:52;;;;;;;4.10;1.97;;;19.20;99.90;;;;;;4955668;29;20452;-82
2021/05/31 10:45:31;;;;;;;1.67;1.57;;;19.30;99.90;;;;;;4951191;29;20419;-79
2021/05/31 10:48:06;;;;;;;2.33;1.77;;;19.40;99.90;;;;;;4947799;29;20476;-81
2021/05/31 10:50:36;;;;;;;2.83;2.03;;;19.70;99.90;;;;;;4940232;29;20640;-82
2021/05/31 10:53:07;;;;;;;4.10;1.93;;;19.40;99.90;;;;;;4941080;29;20445;-82
2021/05/31 10:55:36;;;;;;;2.63;2.33;;;19.20;99.90;;;;;;4940440;29;20396;-80
2021/05/31 10:58:15;;;;;;;1.80;1.40;;;19.30;99.90;;;;;;4941649;29;20907;-82
2021/05/31 11:00:53;;;;;;;2.10;1.90;;;19.30;99.90;;;;;;4940158;29;20439;-82
2021/05/31 11:03:23;;;;;;;3.37;2.07;;;19.20;99.90;;;;;;4939789;29;20980;-83
2021/05/31 11:05:52;;;;;;;2.37;1.93;;;19.00;99.90;;;;;;4944822;29;20524;-80
2021/05/31 11:08:27;;;;;;;1.60;1.20;;;19.10;99.90;;;;;;4944157;29;20516;-81
2021/05/31 11:11:00;;;;;;;2.23;1.83;;;19.20;99.90;;;;;;4940011;29;20428;-81
2021/05/31 11:13:28;;;;;;;1.93;1.50;;;19.30;99.90;;;;;;4939733;29;20761;-81
2021/05/31 11:16:04;;;;;;;3.33;1.93;;;19.70;99.90;;;;;;4939672;29;20445;-80
2021/05/31 11:18:44;;;;;;;2.47;2.20;;;19.90;99.90;;;;;;4940257;29;20440;-81
2021/05/31 11:21:28;;;;;;;1.70;1.47;;;20.10;99.90;;;;;;4940085;29;20866;-81
2021/05/31 11:23:59;;;;;;;1.90;1.40;;;19.90;99.90;;;;;;4939327;29;20451;-82
2021/05/31 11:26:31;;;;;;;2.60;1.93;;;19.70;99.90;;;;;;4940125;29;21002;-82
2021/05/31 11:29:01;;;;;;;2.87;1.83;;;19.60;99.90;;;;;;4939525;29;20427;-81
2021/05/31 11:31:29;;;;;;;2.03;1.73;;;19.70;99.90;;;;;;4938708;29;20800;-81
2021/05/31 11:34:00;;;;;;;2.37;1.40;;;19.70;99.90;;;;;;4938112;29;21007;-82
2021/05/31 11:36:34;;;;;;;3.23;2.20;;;19.90;99.90;;;;;;4958394;29;20450;-82
2021/05/31 11:39:06;;;;;;;2.97;1.73;;;19.90;99.90;;;;;;4960049;28;20431;-82
2021/05/31 11:41:41;;;;;;;2.30;1.63;;;20.00;99.90;;;;;;4958902;28;20484;-81
2021/05/31 11:44:11;;;;;;;2.43;2.00;;;20.20;99.90;;;;;;4959122;29;20854;-79
2021/05/31 11:46:50;;;;;;;2.53;1.60;;;20.00;99.90;;;;;;4971490;28;20465;-81
2021/05/31 11:49:21;;;;;;;1.90;1.70;;;20.00;99.90;;;;;;4980060;28;20525;-82
2021/05/31 11:51:57;;;;;;;3.47;1.53;;;20.10;99.90;;;;;;4981961;28;20458;-81
2021/05/31 11:54:25;;;;;;;3.07;1.87;;;19.90;99.90;;;;;;4984023;28;20413;-81
2021/05/31 11:56:52;;;;;;;1.83;1.60;;;19.90;99.90;;;;;;4982876;28;20451;-81
2021/05/31 11:59:20;;;;;;;3.60;1.90;;;20.10;99.90;;;;;;4976099;28;20437;-81
2021/05/31 12:01:52;;;;;;;2.10;1.50;;;20.30;99.90;;;;;;4965460;28;20483;-81
2021/05/31 12:04:24;;;;;;;1.60;1.27;;;20.40;99.90;;;;;;4977248;28;20988;-80
2021/05/31 12:06:59;;;;;;;3.07;1.80;;;20.30;99.90;;;;;;4973279;28;20861;-81
2021/05/31 12:09:27;;;;;;;2.50;1.90;;;20.50;99.90;;;;;;4964766;28;20786;-80
2021/05/31 12:11:56;;;;;;;3.03;1.93;;;20.50;99.90;;;;;;4992086;28;20452;-82
2021/05/31 12:14:25;;;;;;;1.53;1.20;;;20.70;99.90;;;;;;4982281;28;21008;-81
2021/05/31 12:16:58;;;;;;;3.73;1.73;;;20.80;99.90;;;;;;4991890;28;20475;-81
2021/05/31 12:19:29;;;;;;;2.10;1.40;;;20.70;99.90;;;;;;4992837;28;20411;-81
2021/05/31 12:21:59;;;;;;;1.87;1.53;;;20.60;99.90;;;;;;4994611;28;20461;-81
2021/05/31 12:24:27;;;;;;;1.73;1.50;;;20.70;99.90;;;;;;4978736;28;20746;-80
2021/05/31 12:26:58;;;;;;;1.40;1.00;;;20.80;99.90;;;;;;4971361;28;20463;-81
2021/05/31 12:29:33;;;;;;;3.57;1.90;;;20.80;99.90;;;;;;4990830;28;20436;-81
2021/05/31 12:32:04;;;;;;;2.80;1.90;;;21.00;99.90;;;;;;4963541;28;20494;-83
2021/05/31 12:34:34;;;;;;;1.67;1.20;;;20.90;99.90;;;;;;4970072;28;20435;-81
2021/05/31 12:37:04;;;;;;;1.80;1.63;;;21.00;99.90;;;;;;4961846;28;20899;-82
2021/05/31 12:39:32;;;;;;;1.97;1.87;;;20.80;99.90;;;;;;4965857;28;20434;-80
2021/05/31 12:42:00;;;;;;;1.50;1.40;;;20.90;99.90;;;;;;4969629;28;20474;-82
2021/05/31 12:44:29;;;;;;;2.33;1.53;;;20.90;99.90;;;;;;4964325;28;20427;-81
2021/05/31 12:47:06;;;;;;;2.33;1.37;;;20.80;99.90;;;;;;4966664;28;20875;-80
2021/05/31 12:49:41;;;;;;;1.80;1.40;;;20.90;99.90;;;;;;4962412;29;20780;-80
2021/05/31 12:52:09;;;;;;;1.60;1.40;;;20.90;99.90;;;;;;4961779;29;20450;-79
2021/05/31 12:54:37;;;;;;;1.53;1.43;;;21.10;99.90;;;;;;4958258;29;20402;-79
2021/05/31 12:57:12;;;;;;;1.70;1.60;;;21.00;99.90;;;;;;4967646;29;20856;-81
2021/05/31 12:59:44;;;;;;;1.70;1.50;;;21.10;99.90;;;;;;4971419;29;20439;-81
2021/05/31 13:02:16;;;;;;;2.20;1.90;;;21.30;99.90;;;;;;4967024;28;20498;-80
2021/05/31 13:04:58;;;;;;;2.80;1.83;;;21.40;99.90;;;;;;4961535;29;20462;-79
2021/05/31 13:07:30;;;;;;;1.77;1.43;;;21.50;99.90;;;;;;4958364;28;20469;-82
2021/05/31 13:10:06;;;;;;;2.50;1.80;;;21.60;99.90;;;;;;4961178;29;20512;-81
2021/05/31 13:12:34;;;;;;;4.63;2.03;;;21.50;99.90;;;;;;4960539;28;20505;-81
2021/05/31 13:15:04;;;;;;;2.17;1.70;;;21.70;99.90;;;;;;4960039;28;20452;-81
2021/05/31 13:17:32;;;;;;;1.70;1.47;;;21.70;99.90;;;;;;4961753;28;20491;-80
2021/05/31 13:20:11;;;;;;;2.20;1.80;;;21.40;99.90;;;;;;4966568;28;20796;-80
2021/05/31 13:22:39;;;;;;;2.03;1.83;;;21.40;99.90;;;;;;4968332;28;20490;-82
2021/05/31 13:25:08;;;;;;;2.47;1.87;;;21.40;99.90;;;;;;4978905;28;20466;-81
2021/05/31 13:27:36;;;;;;;1.60;1.33;;;21.40;99.90;;;;;;4979891;28;20458;-81
2021/05/31 13:30:07;;;;;;;3.03;1.83;;;21.40;99.90;;;;;;4981281;28;20829;-81
2021/05/31 13:32:36;;;;;;;1.87;1.10;;;21.50;99.90;;;;;;4981036;28;20458;-80
2021/05/31 13:35:06;;;;;;;2.27;1.53;;;21.50;99.90;;;;;;4980034;28;20641;-81
2021/05/31 13:37:44;;;;;;;2.27;0.90;;;21.60;99.90;;;;;;4980220;28;20418;-81
2021/05/31 13:40:14;;;;;;;2.40;1.57;;;21.60;99.90;;;;;;4978453;28;20446;-80
2021/05/31 13:42:52;;;;;;;1.80;1.50;;;21.40;99.90;;;;;;4974574;28;20483;-81
2021/05/31 13:45:20;;;;;;;2.00;1.10;;;21.40;99.90;;;;;;4960783;29;20785;-82